Time;durP1;ratioP1;P1;durP2;ratioP2;P2;SDS_P1;SDS_P2;PMS_P1;PMS_P2;Temp;Humidity;BMP_temperature;BMP_pressure;BME280_temperature;BME280_humidity;BME280_pressure;Samples;Min_cycle;Max_cycle;Signal;HPM_P1;HPM_P2
2021/08/29 00:01:54;;;;;;;5.30;1.97;;;23.80;56.40;;;;;;6137573;23;20396;-88
2021/08/29 00:08:21;;;;;;;2.97;1.73;;;23.70;56.40;;;;;;6078677;23;20382;-88
2021/08/29 00:11:25;;;;;;;4.60;2.20;;;23.70;56.30;;;;;;6054281;23;20374;-88
2021/08/29 00:14:46;;;;;;;3.03;1.70;;;23.70;56.40;;;;;;6046972;23;20430;-88
2021/08/29 00:20:58;;;;;;;3.57;2.63;;;23.70;56.40;;;;;;6078130;23;20399;-88
2021/08/29 00:23:38;;;;;;;3.93;2.53;;;23.70;56.40;;;;;;6054225;23;20379;-88
2021/08/29 00:26:54;;;;;;;;;;;;;;;;;;;;;
2021/08/29 00:29:22;;;;;;;2.70;1.77;;;23.70;56.40;;;;;;6128775;23;20400;-89
2021/08/29 00:35:34;;;;;;;2.93;1.70;;;23.70;56.50;;;;;;6078133;23;20445;-89
2021/08/29 00:44:55;;;;;;;2.67;1.83;;;23.70;56.50;;;;;;6005841;23;20421;-89
2021/08/29 00:48:14;;;;;;;2.33;1.80;;;23.70;56.60;;;;;;6049474;23;20450;-89
2021/08/29 00:57:36;;;;;;;;;;;;;;;;;;;;;
2021/08/29 01:07:48;;;;;;;2.57;1.43;;;23.60;56.60;;;;;;6106787;23;20366;-89
2021/08/29 01:10:43;;;;;;;2.90;1.97;;;23.60;56.60;;;;;;6105931;23;20448;-89
2021/08/29 01:17:13;;;;;;;;;;;;;;;;;;;;;
2021/08/29 01:20:01;;;;;;;3.77;1.97;;;23.60;56.80;;;;;;6165881;23;20459;-88
2021/08/29 01:22:53;;;;;;;2.30;1.80;;;23.60;56.70;;;;;;6141776;23;20376;-88
2021/08/29 01:25:41;;;;;;;2.60;1.43;;;23.60;56.70;;;;;;6141585;23;20380;-89
2021/08/29 01:31:50;;;;;;;1.80;1.30;;;23.60;56.60;;;;;;6165326;23;20395;-88
2021/08/29 01:34:44;;;;;;;4.17;1.90;;;23.60;56.70;;;;;;6141796;23;20395;-88
2021/08/29 01:37:30;;;;;;;2.17;1.37;;;23.60;56.70;;;;;;6197003;23;20780;-88
2021/08/29 01:40:01;;;;;;;3.63;1.80;;;23.60;56.70;;;;;;6227586;23;20440;-88
2021/08/29 01:43:11;;;;;;;2.17;1.80;;;23.60;56.70;;;;;;6228050;23;20694;-88
2021/08/29 01:52:36;;;;;;;2.13;1.90;;;23.60;56.70;;;;;;6137175;23;20361;-88
2021/08/29 01:55:28;;;;;;;2.73;1.70;;;23.60;56.80;;;;;;6111816;23;20472;-88
2021/08/29 01:57:57;;;;;;;1.97;1.57;;;23.60;56.70;;;;;;6136488;23;20495;-88
2021/08/29 02:00:28;;;;;;;1.60;1.30;;;23.50;56.70;;;;;;6112009;23;20385;-88
2021/08/29 02:03:13;;;;;;;2.13;1.50;;;23.60;56.80;;;;;;6111610;23;20454;-88
2021/08/29 02:06:09;;;;;;;;;;;;;;;;;;;;;
2021/08/29 02:08:44;;;;;;;2.80;1.57;;;23.60;56.70;;;;;;6136381;23;20417;-88
2021/08/29 02:11:28;;;;;;;2.53;1.60;;;23.50;56.60;;;;;;6112073;23;20624;-88
2021/08/29 02:14:03;;;;;;;4.17;1.67;;;23.60;56.70;;;;;;6136226;23;20479;-88
2021/08/29 02:16:55;;;;;;;1.40;1.10;;;23.60;56.70;;;;;;6112928;23;20388;-88
2021/08/29 02:19:30;;;;;;;5.13;1.37;;;23.60;56.70;;;;;;6178326;23;20433;-88
2021/08/29 02:22:12;;;;;;;1.90;1.40;;;23.50;56.60;;;;;;6227167;23;20382;-88
2021/08/29 02:31:41;;;;;;;3.17;1.47;;;23.50;56.70;;;;;;6107492;23;20386;-88
2021/08/29 02:34:21;;;;;;;2.03;1.43;;;23.50;56.70;;;;;;6105088;23;20401;-88
2021/08/29 02:43:03;;;;;;;3.13;1.40;;;23.50;56.70;;;;;;6106892;23;20366;-88
2021/08/29 02:49:46;;;;;;;2.43;1.60;;;23.50;56.70;;;;;;6107025;23;20357;-88
2021/08/29 02:52:35;;;;;;;1.30;1.20;;;23.50;56.70;;;;;;6082961;23;20423;-88
2021/08/29 02:55:17;;;;;;;1.60;1.27;;;23.50;56.90;;;;;;6070786;23;20385;-88
2021/08/29 02:57:53;;;;;;;2.33;1.60;;;23.50;56.90;;;;;;6153994;23;20400;-88
2021/08/29 03:00:50;;;;;;;;;;;;;;;;;;;;;
2021/08/29 03:03:29;;;;;;;2.77;1.70;;;23.50;56.80;;;;;;6228037;23;20413;-88
2021/08/29 03:09:17;;;;;;;2.83;1.60;;;23.50;56.80;;;;;;6166993;23;20382;-88
2021/08/29 03:15:09;;;;;;;2.90;2.10;;;23.50;57.10;;;;;;6195699;23;20366;-88
2021/08/29 03:24:01;;;;;;;2.63;1.63;;;23.40;56.80;;;;;;6107446;23;20451;-89
2021/08/29 03:27:01;;;;;;;1.80;1.23;;;23.40;56.80;;;;;;6108086;23;20386;-89
2021/08/29 03:40:57;;;;;;;3.27;1.33;;;23.40;56.80;;;;;;6117144;23;20401;-88
2021/08/29 03:43:46;;;;;;;2.37;1.40;;;23.40;56.90;;;;;;6126431;23;20422;-90
2021/08/29 03:46:19;;;;;;;1.70;1.47;;;23.40;57.00;;;;;;6138549;23;20380;-90
2021/08/29 03:49:14;;;;;;;3.20;1.43;;;23.40;56.90;;;;;;6141600;23;20418;-89
2021/08/29 03:52:05;;;;;;;;;;;;;;;;;;;;;
2021/08/29 03:54:56;;;;;;;;;;;;;;;;;;;;;
2021/08/29 03:57:36;;;;;;;1.63;1.30;;;23.40;56.90;;;;;;6168267;23;20364;-89
2021/08/29 04:00:21;;;;;;;2.73;1.50;;;23.40;56.90;;;;;;6161723;23;20477;-89
2021/08/29 04:03:08;;;;;;;2.00;1.17;;;23.40;56.80;;;;;;6230814;23;20366;-89
2021/08/29 04:06:23;;;;;;;1.90;1.33;;;23.40;56.80;;;;;;6227990;23;20416;-88
2021/08/29 04:12:22;;;;;;;1.70;1.33;;;23.40;56.80;;;;;;6136166;23;20378;-88
2021/08/29 04:15:32;;;;;;;1.93;1.73;;;23.40;56.90;;;;;;6227885;23;20424;-88
2021/08/29 04:18:21;;;;;;;1.90;1.20;;;23.40;56.80;;;;;;6180993;23;20418;-89
2021/08/29 04:23:49;;;;;;;1.80;1.40;;;23.40;56.90;;;;;;6228456;23;20382;-88
2021/08/29 04:29:22;;;;;;;2.30;1.40;;;23.40;56.80;;;;;;6227762;23;20437;-88
2021/08/29 04:32:24;;;;;;;2.03;1.37;;;23.40;56.80;;;;;;6226822;23;20457;-88
2021/08/29 04:35:15;;;;;;;;;;;;;;;;;;;;;
2021/08/29 04:38:02;;;;;;;1.87;1.27;;;23.50;56.80;;;;;;6229083;23;20409;-88
2021/08/29 04:40:45;;;;;;;1.30;1.07;;;23.50;56.80;;;;;;6253160;23;20891;-87
2021/08/29 04:43:30;;;;;;;1.30;1.10;;;23.50;56.70;;;;;;6226613;23;20381;-89
2021/08/29 04:46:01;;;;;;;1.77;1.13;;;23.50;56.70;;;;;;6227581;23;20378;-88
2021/08/29 04:48:32;;;;;;;1.43;1.07;;;23.50;56.60;;;;;;6227459;23;20393;-88
2021/08/29 04:51:25;;;;;;;1.53;1.20;;;23.50;56.60;;;;;;6253131;23;20386;-88
2021/08/29 04:53:57;;;;;;;1.83;1.27;;;23.50;56.60;;;;;;6229972;23;20379;-88
2021/08/29 04:56:46;;;;;;;1.87;1.10;;;23.50;56.60;;;;;;6227769;23;20386;-88
2021/08/29 04:59:32;;;;;;;1.87;1.20;;;23.50;56.50;;;;;;6253045;23;20414;-88
2021/08/29 05:02:05;;;;;;;1.40;1.03;;;23.50;56.50;;;;;;6229399;23;20883;-88
2021/08/29 05:08:09;;;;;;;1.90;1.40;;;23.50;56.50;;;;;;6233587;23;20402;-88
2021/08/29 05:17:20;;;;;;;1.60;1.00;;;23.50;56.50;;;;;;6138425;23;20384;-88
2021/08/29 05:20:22;;;;;;;2.27;1.50;;;23.50;56.50;;;;;;6136866;23;20478;-89
2021/08/29 05:23:05;;;;;;;;;;;;;;;;;;;;;
2021/08/29 05:35:29;;;;;;;2.00;1.47;;;23.50;56.40;;;;;;6051147;23;20351;-88
2021/08/29 05:38:20;;;;;;;2.63;1.57;;;23.50;56.40;;;;;;6050437;23;20375;-89
2021/08/29 05:47:35;;;;;;;;;;;;;;;;;;;;;
2021/08/29 05:56:50;;;;;;;;;;;;;;;;;;;;;
2021/08/29 06:02:51;;;;;;;1.70;1.40;;;23.50;56.40;;;;;;6139946;23;20430;-88
2021/08/29 06:05:21;;;;;;;1.60;1.20;;;23.50;56.40;;;;;;6142237;23;20389;-88
2021/08/29 06:21:08;;;;;;;2.00;1.30;;;23.50;56.30;;;;;;6230855;23;20346;-86
2021/08/29 06:23:39;;;;;;;4.50;1.80;;;23.50;56.40;;;;;;6228647;23;20437;-86
2021/08/29 06:26:12;;;;;;;3.07;1.53;;;23.50;56.40;;;;;;6229377;23;20401;-86
2021/08/29 06:28:41;;;;;;;4.83;1.50;;;23.50;56.30;;;;;;6229311;23;20398;-86
2021/08/29 06:31:07;;;;;;;1.87;1.10;;;23.50;56.30;;;;;;6228950;23;20391;-85
2021/08/29 06:33:32;;;;;;;1.43;1.20;;;23.50;56.30;;;;;;6255837;23;20778;-85
2021/08/29 06:35:58;;;;;;;2.53;1.33;;;23.60;56.30;;;;;;6229205;23;20155;-87
2021/08/29 06:38:30;;;;;;;5.00;1.27;;;23.60;56.30;;;;;;6254579;23;20183;-87
2021/08/29 06:40:56;;;;;;;3.87;1.40;;;23.60;56.60;;;;;;6254657;23;20378;-87
2021/08/29 06:43:23;;;;;;;2.10;1.50;;;23.60;56.30;;;;;;6254360;23;20386;-87
2021/08/29 06:45:52;;;;;;;2.77;1.47;;;23.60;56.20;;;;;;6230058;23;20440;-87
2021/08/29 06:48:20;;;;;;;1.47;1.20;;;23.60;56.20;;;;;;6230946;23;20445;-87
2021/08/29 06:50:46;;;;;;;1.77;1.30;;;23.60;56.20;;;;;;6254736;23;20393;-86
2021/08/29 06:53:14;;;;;;;2.20;1.33;;;23.70;56.20;;;;;;6230849;23;20449;-86
2021/08/29 06:55:43;;;;;;;4.20;1.37;;;23.70;56.20;;;;;;6229768;23;20185;-86
2021/08/29 06:58:09;;;;;;;1.50;1.17;;;23.70;56.20;;;;;;6204951;23;20499;-87
2021/08/29 07:00:35;;;;;;;1.87;0.97;;;23.70;56.20;;;;;;6253627;23;20374;-87
2021/08/29 07:03:01;;;;;;;2.70;1.40;;;23.70;56.20;;;;;;6254867;23;20379;-86
2021/08/29 07:05:27;;;;;;;2.03;1.33;;;23.70;56.20;;;;;;6223039;23;20163;-86
2021/08/29 07:07:54;;;;;;;1.60;1.20;;;23.70;56.20;;;;;;6200756;23;20380;-86
2021/08/29 07:10:26;;;;;;;2.10;1.47;;;23.70;56.20;;;;;;6200521;23;20475;-86
2021/08/29 07:12:57;;;;;;;1.50;1.20;;;23.70;56.20;;;;;;6200361;23;20366;-86
2021/08/29 07:15:23;;;;;;;1.33;1.23;;;23.70;56.20;;;;;;6174158;23;20375;-87
2021/08/29 07:17:55;;;;;;;1.47;1.20;;;23.70;56.20;;;;;;6173019;23;20492;-87
2021/08/29 07:20:30;;;;;;;2.43;1.27;;;23.80;56.20;;;;;;6200546;23;20375;-86
2021/08/29 07:22:59;;;;;;;2.03;1.20;;;23.70;56.10;;;;;;6173031;23;20371;-86
2021/08/29 07:25:28;;;;;;;1.57;1.00;;;23.70;56.20;;;;;;6200453;23;20367;-86
2021/08/29 07:27:54;;;;;;;1.60;1.03;;;23.80;56.20;;;;;;6200532;23;20378;-86
2021/08/29 07:30:23;;;;;;;1.20;1.10;;;23.70;56.10;;;;;;6174787;23;20410;-86
2021/08/29 07:32:52;;;;;;;1.77;1.13;;;23.80;56.20;;;;;;6174454;23;20433;-86
2021/08/29 07:35:25;;;;;;;1.00;0.90;;;23.80;56.20;;;;;;6200989;23;20387;-86
2021/08/29 07:37:53;;;;;;;1.87;1.00;;;23.80;56.20;;;;;;6175240;23;20383;-86
2021/08/29 07:40:22;;;;;;;1.40;1.13;;;23.80;56.20;;;;;;6174829;23;20450;-86
2021/08/29 07:42:52;;;;;;;1.50;1.20;;;23.80;56.20;;;;;;6174327;23;20380;-86
2021/08/29 07:45:23;;;;;;;1.97;1.37;;;23.80;56.20;;;;;;6174172;23;20446;-86
2021/08/29 07:54:40;;;;;;;1.50;1.30;;;23.80;56.20;;;;;;6080373;23;20350;-85
2021/08/29 07:57:12;;;;;;;1.73;1.23;;;23.70;56.20;;;;;;6080122;23;20383;-86
2021/08/29 07:59:53;;;;;;;1.30;1.13;;;23.70;56.20;;;;;;6079820;23;20501;-86
2021/08/29 08:02:22;;;;;;;1.30;1.00;;;23.80;56.30;;;;;;6080488;23;20393;-86
2021/08/29 08:05:06;;;;;;;1.30;1.00;;;23.70;56.20;;;;;;6080074;23;20449;-87
2021/08/29 08:07:32;;;;;;;1.40;1.10;;;23.80;56.30;;;;;;6080414;23;20458;-87
2021/08/29 08:09:58;;;;;;;1.40;1.10;;;23.80;56.20;;;;;;6056279;23;20427;-87
2021/08/29 08:12:23;;;;;;;1.07;0.90;;;23.80;56.20;;;;;;6056518;23;20383;-87
2021/08/29 08:14:52;;;;;;;1.30;1.20;;;23.80;56.20;;;;;;6080176;23;20166;-87
2021/08/29 08:17:21;;;;;;;1.70;1.10;;;23.80;56.20;;;;;;6079975;23;20158;-87
2021/08/29 08:19:50;;;;;;;1.43;1.27;;;23.80;56.20;;;;;;6080287;23;20509;-88
2021/08/29 08:22:16;;;;;;;2.20;1.20;;;23.80;56.20;;;;;;6080549;23;20379;-87
2021/08/29 08:24:43;;;;;;;1.20;1.10;;;23.80;56.20;;;;;;6080675;23;20390;-87
2021/08/29 08:27:11;;;;;;;1.33;1.07;;;23.80;56.20;;;;;;6101820;23;20383;-87
2021/08/29 08:29:42;;;;;;;1.53;1.03;;;23.80;56.20;;;;;;6174227;23;20410;-87
2021/08/29 08:32:08;;;;;;;1.10;1.00;;;23.80;56.20;;;;;;6174332;23;20478;-87
2021/08/29 08:34:42;;;;;;;1.10;1.00;;;23.80;56.20;;;;;;6149023;23;20455;-87
2021/08/29 08:37:09;;;;;;;1.30;1.20;;;23.80;56.20;;;;;;6173106;23;20382;-87
2021/08/29 08:39:42;;;;;;;2.50;1.10;;;23.80;56.20;;;;;;6173816;23;20450;-87
2021/08/29 08:42:08;;;;;;;1.20;1.10;;;23.80;56.20;;;;;;6175251;23;20371;-87
2021/08/29 08:44:34;;;;;;;1.10;0.90;;;23.80;56.20;;;;;;6173986;23;20406;-87
2021/08/29 08:47:11;;;;;;;1.40;1.10;;;23.80;56.10;;;;;;6149111;23;20215;-87
2021/08/29 08:49:55;;;;;;;1.30;1.00;;;23.90;56.20;;;;;;6200278;23;20386;-87
2021/08/29 08:52:29;;;;;;;1.10;0.90;;;23.90;56.20;;;;;;6199299;23;20361;-87
2021/08/29 08:55:01;;;;;;;1.30;1.17;;;23.90;56.20;;;;;;6173385;23;20447;-86
2021/08/29 08:57:30;;;;;;;1.77;1.30;;;23.80;56.20;;;;;;6199896;23;20375;-86
2021/08/29 08:59:57;;;;;;;2.27;0.90;;;23.80;56.20;;;;;;6173194;23;20422;-86
2021/08/29 09:02:27;;;;;;;1.40;1.00;;;23.90;56.20;;;;;;6173108;23;20379;-86
2021/08/29 09:04:53;;;;;;;1.23;1.00;;;23.90;56.20;;;;;;6171913;23;20379;-86
2021/08/29 09:07:20;;;;;;;1.10;1.00;;;23.90;56.20;;;;;;6173190;23;20462;-86
2021/08/29 09:09:49;;;;;;;1.10;0.80;;;23.90;56.20;;;;;;6173319;23;20209;-87
2021/08/29 09:12:21;;;;;;;1.33;0.97;;;23.90;56.20;;;;;;6172803;23;20383;-86
2021/08/29 09:15:08;;;;;;;1.30;1.00;;;23.80;56.10;;;;;;6172842;23;20386;-86
2021/08/29 09:17:38;;;;;;;2.50;1.20;;;23.80;56.10;;;;;;6172315;23;20387;-85
2021/08/29 09:20:30;;;;;;;1.37;1.13;;;23.80;56.20;;;;;;6173200;23;20422;-86
2021/08/29 09:23:14;;;;;;;1.10;1.00;;;23.90;56.30;;;;;;6173062;23;20379;-86
2021/08/29 09:25:43;;;;;;;1.30;0.90;;;23.80;56.20;;;;;;6173763;23;20399;-86
2021/08/29 09:28:12;;;;;;;1.47;1.00;;;23.80;56.20;;;;;;6174318;23;20394;-87
2021/08/29 09:30:46;;;;;;;1.10;0.90;;;23.80;56.20;;;;;;6173786;23;20391;-87
2021/08/29 09:33:12;;;;;;;1.73;1.13;;;23.90;56.40;;;;;;6174358;23;20380;-85
2021/08/29 09:35:41;;;;;;;1.20;0.90;;;23.80;56.20;;;;;;6173041;23;20426;-86
2021/08/29 09:38:14;;;;;;;1.90;0.90;;;23.80;56.20;;;;;;6173294;23;20427;-86
2021/08/29 09:40:44;;;;;;;1.63;1.10;;;23.90;56.70;;;;;;6173822;23;20375;-86
2021/08/29 09:43:13;;;;;;;1.30;0.93;;;23.90;56.30;;;;;;6149028;23;20387;-87
2021/08/29 09:45:51;;;;;;;1.60;1.00;;;23.80;56.20;;;;;;6173521;23;20465;-86
2021/08/29 09:48:29;;;;;;;1.10;0.93;;;23.90;56.30;;;;;;6174760;23;20390;-88
2021/08/29 09:51:02;;;;;;;1.10;0.80;;;23.80;56.20;;;;;;6175958;23;20375;-86
2021/08/29 09:53:48;;;;;;;1.10;0.90;;;23.80;56.20;;;;;;6175516;23;20784;-86
2021/08/29 09:56:30;;;;;;;1.20;1.00;;;23.90;56.30;;;;;;6174895;23;20426;-88
2021/08/29 09:58:56;;;;;;;1.63;1.30;;;23.80;56.30;;;;;;6173783;23;20505;-88
2021/08/29 10:01:23;;;;;;;1.20;0.90;;;23.80;56.30;;;;;;6200724;23;20367;-88
2021/08/29 10:03:54;;;;;;;1.37;1.10;;;23.80;56.30;;;;;;6174924;23;20371;-88
2021/08/29 10:06:35;;;;;;;1.47;1.00;;;23.80;56.30;;;;;;6231574;23;20402;-88
2021/08/29 10:09:39;;;;;;;0.97;0.80;;;23.90;56.30;;;;;;6255093;23;20374;-86
2021/08/29 10:12:12;;;;;;;1.53;1.43;;;23.90;56.30;;;;;;6230205;23;20374;-86
2021/08/29 10:14:40;;;;;;;1.40;0.97;;;23.80;56.30;;;;;;6229745;23;20383;-86
2021/08/29 10:17:18;;;;;;;1.10;0.80;;;23.80;56.90;;;;;;6254207;23;20911;-86
2021/08/29 10:19:45;;;;;;;1.53;1.30;;;23.80;56.30;;;;;;6231551;23;20481;-86
2021/08/29 10:22:14;;;;;;;1.10;0.90;;;23.80;56.40;;;;;;6229095;23;20378;-86
2021/08/29 10:24:58;;;;;;;1.27;0.90;;;23.80;56.30;;;;;;6230915;23;20764;-86
2021/08/29 10:27:36;;;;;;;1.40;0.93;;;23.80;56.30;;;;;;6229867;23;20370;-88
2021/08/29 10:30:07;;;;;;;1.40;1.20;;;23.80;56.40;;;;;;6229742;23;20435;-86
2021/08/29 10:32:57;;;;;;;1.50;1.27;;;23.80;56.40;;;;;;6229885;23;20375;-86
2021/08/29 10:35:36;;;;;;;1.10;1.00;;;23.80;56.40;;;;;;6254681;23;20417;-86
2021/08/29 10:38:02;;;;;;;2.33;1.10;;;23.80;56.40;;;;;;6228093;23;20393;-88
2021/08/29 10:40:29;;;;;;;1.93;0.90;;;23.80;56.40;;;;;;6254586;22;20378;-87
2021/08/29 10:42:58;;;;;;;1.00;0.80;;;23.80;56.40;;;;;;6229061;23;20379;-85
2021/08/29 10:45:26;;;;;;;1.20;0.90;;;23.80;56.40;;;;;;6229429;23;20384;-86
2021/08/29 10:48:08;;;;;;;;;;;;;;;;;;;;;
2021/08/29 10:50:36;;;;;;;1.70;0.93;;;23.80;56.40;;;;;;6230898;23;20377;-88
2021/08/29 10:53:22;;;;;;;1.10;0.73;;;23.80;56.40;;;;;;6230307;23;20370;-88
2021/08/29 10:55:48;;;;;;;0.90;0.80;;;23.80;56.50;;;;;;6229795;23;20448;-87
2021/08/29 10:58:20;;;;;;;1.10;0.80;;;23.70;56.40;;;;;;6230482;23;20437;-87
2021/08/29 11:00:46;;;;;;;1.20;1.03;;;23.80;56.40;;;;;;6229324;23;20383;-88
2021/08/29 11:03:28;;;;;;;1.50;0.90;;;23.70;56.40;;;;;;6255061;23;20362;-88
2021/08/29 11:05:54;;;;;;;1.33;1.00;;;23.80;56.50;;;;;;6254449;23;20424;-88
2021/08/29 11:08:26;;;;;;;1.30;0.90;;;23.70;56.50;;;;;;6229205;23;20417;-88
2021/08/29 11:10:54;;;;;;;1.03;0.93;;;23.70;56.40;;;;;;6228949;23;20366;-87
2021/08/29 11:14:06;;;;;;;1.17;0.97;;;23.70;56.50;;;;;;6229711;23;20414;-88
2021/08/29 11:17:10;;;;;;;1.40;0.90;;;23.70;56.40;;;;;;6226158;23;20852;-88
2021/08/29 11:19:47;;;;;;;1.00;0.80;;;23.70;56.60;;;;;;6252018;23;20422;-86
2021/08/29 11:22:28;;;;;;;1.10;0.97;;;23.70;57.20;;;;;;6227421;23;20393;-86
2021/08/29 11:25:01;;;;;;;1.27;0.90;;;23.70;56.70;;;;;;6227513;23;20372;-86
2021/08/29 11:30:05;;;;;;;1.70;1.10;;;23.70;56.60;;;;;;6229104;23;20385;-86
2021/08/29 11:32:39;;;;;;;1.30;1.00;;;23.70;56.70;;;;;;6227178;23;20386;-86
2021/08/29 11:35:14;;;;;;;1.20;1.10;;;23.70;56.70;;;;;;6227847;23;20770;-87
2021/08/29 11:37:40;;;;;;;1.37;1.00;;;23.70;56.70;;;;;;6227681;23;20393;-86
2021/08/29 11:40:37;;;;;;;1.23;1.13;;;23.70;56.60;;;;;;6228606;23;20410;-86
2021/08/29 11:43:27;;;;;;;1.40;0.90;;;23.70;56.60;;;;;;6178736;23;20151;-86
2021/08/29 11:46:18;;;;;;;2.13;0.90;;;23.70;56.60;;;;;;6226943;23;20366;-86
2021/08/29 11:48:53;;;;;;;1.20;1.00;;;23.70;56.70;;;;;;6227544;23;20442;-87
2021/08/29 11:51:39;;;;;;;1.40;1.10;;;23.60;56.70;;;;;;6226989;23;20405;-86
2021/08/29 11:54:11;;;;;;;1.93;1.10;;;23.60;56.80;;;;;;6227078;23;20384;-86
2021/08/29 11:56:37;;;;;;;1.30;0.97;;;23.60;56.80;;;;;;6226783;23;20393;-86
2021/08/29 11:59:08;;;;;;;1.00;0.80;;;23.60;56.80;;;;;;6227523;23;20444;-86
2021/08/29 12:01:42;;;;;;;1.10;0.90;;;23.60;56.80;;;;;;6227554;23;20378;-87
2021/08/29 12:04:08;;;;;;;1.73;1.00;;;23.60;56.90;;;;;;6225850;23;20427;-87
2021/08/29 12:09:51;;;;;;;1.20;1.00;;;23.60;56.80;;;;;;6224957;23;20401;-87
2021/08/29 12:15:44;;;;;;;1.27;1.00;;;23.60;56.80;;;;;;6198006;23;20367;-87
2021/08/29 12:18:16;;;;;;;1.10;0.90;;;23.60;56.90;;;;;;6197604;23;20371;-86
2021/08/29 12:20:45;;;;;;;1.10;0.80;;;23.60;56.90;;;;;;6171885;23;20383;-86
2021/08/29 12:30:13;;;;;;;1.13;0.90;;;23.50;56.90;;;;;;6078076;23;20368;-86
2021/08/29 12:32:41;;;;;;;1.20;0.87;;;23.50;57.00;;;;;;6076635;23;20375;-86
2021/08/29 12:38:58;;;;;;;1.90;1.17;;;23.50;56.90;;;;;;6077627;23;20477;-87
2021/08/29 12:41:24;;;;;;;1.10;1.00;;;23.50;56.90;;;;;;6077676;23;20408;-86
2021/08/29 12:44:06;;;;;;;1.00;0.87;;;23.50;57.00;;;;;;6078247;23;20444;-86
2021/08/29 12:46:32;;;;;;;1.00;0.90;;;23.50;57.00;;;;;;6054362;23;20154;-87
2021/08/29 12:49:01;;;;;;;1.00;0.80;;;23.50;57.00;;;;;;6077001;23;20395;-87
2021/08/29 12:51:30;;;;;;;1.53;0.93;;;23.50;57.00;;;;;;6078041;23;20386;-86
2021/08/29 12:54:10;;;;;;;1.07;0.87;;;23.50;57.00;;;;;;6076680;23;20458;-87
2021/08/29 12:56:36;;;;;;;1.23;0.93;;;23.50;57.00;;;;;;6053711;23;20465;-86
2021/08/29 12:59:16;;;;;;;1.30;0.87;;;23.50;57.00;;;;;;6079796;23;20425;-86
2021/08/29 13:01:52;;;;;;;1.10;0.80;;;23.50;57.00;;;;;;6171241;23;20152;-86
2021/08/29 13:04:40;;;;;;;1.10;0.90;;;23.50;57.00;;;;;;6171250;23;20570;-87
2021/08/29 13:07:08;;;;;;;1.40;0.90;;;23.50;57.00;;;;;;6197709;23;20370;-86
2021/08/29 13:09:44;;;;;;;0.90;0.80;;;23.50;57.10;;;;;;6171294;23;20387;-86
2021/08/29 13:12:29;;;;;;;1.37;1.00;;;23.50;57.10;;;;;;6170904;23;20387;-86
2021/08/29 13:14:56;;;;;;;1.10;0.90;;;23.50;57.00;;;;;;6171453;23;20375;-87
2021/08/29 13:17:30;;;;;;;1.10;0.90;;;23.50;57.10;;;;;;6197780;23;20402;-86
2021/08/29 13:20:02;;;;;;;1.03;0.90;;;23.50;57.10;;;;;;6171447;23;20481;-86
2021/08/29 13:22:29;;;;;;;1.37;0.80;;;23.50;57.10;;;;;;6171672;23;20375;-86
2021/08/29 13:24:55;;;;;;;1.20;0.80;;;23.50;57.00;;;;;;6198984;23;20371;-86
2021/08/29 13:27:22;;;;;;;1.13;0.90;;;23.50;57.00;;;;;;6172939;23;20385;-86
2021/08/29 13:29:57;;;;;;;1.10;0.90;;;23.50;57.00;;;;;;6172006;23;20391;-85
2021/08/29 13:32:46;;;;;;;1.20;0.90;;;23.50;57.00;;;;;;6173267;23;20390;-86
2021/08/29 13:35:15;;;;;;;0.90;0.80;;;23.50;57.00;;;;;;6164368;23;20720;-86
2021/08/29 13:37:56;;;;;;;0.97;0.80;;;23.50;57.00;;;;;;6172897;23;20417;-86
2021/08/29 13:40:28;;;;;;;1.73;0.83;;;23.50;57.00;;;;;;6199333;23;20399;-86
2021/08/29 13:46:24;;;;;;;1.00;0.80;;;23.50;57.00;;;;;;6089113;23;20377;-86
2021/08/29 13:52:27;;;;;;;1.00;0.80;;;23.50;57.00;;;;;;6198133;23;20335;-86
2021/08/29 13:55:27;;;;;;;;;;;;;;;;;;;;;
2021/08/29 14:01:04;;;;;;;1.10;0.80;;;23.50;57.20;;;;;;6136324;23;20372;-86
2021/08/29 14:03:35;;;;;;;1.30;0.80;;;23.40;57.20;;;;;;6137025;23;20381;-86
2021/08/29 14:06:06;;;;;;;1.47;1.20;;;23.40;57.20;;;;;;6136784;23;20384;-86
2021/08/29 14:08:36;;;;;;;1.10;0.93;;;23.50;57.30;;;;;;6136776;23;20385;-86
2021/08/29 14:11:05;;;;;;;1.20;0.80;;;23.40;57.20;;;;;;6136624;23;20424;-86
2021/08/29 14:13:32;;;;;;;1.10;0.90;;;23.40;57.20;;;;;;6111967;23;20423;-85
2021/08/29 14:15:58;;;;;;;1.00;0.80;;;23.40;57.20;;;;;;6112412;23;20884;-86
2021/08/29 14:18:24;;;;;;;1.00;0.80;;;23.40;57.20;;;;;;6137083;23;20523;-86
2021/08/29 14:20:58;;;;;;;1.10;1.00;;;23.40;57.20;;;;;;6112080;23;20172;-86
2021/08/29 14:23:26;;;;;;;1.17;0.90;;;23.40;57.20;;;;;;6112309;23;20373;-86
2021/08/29 14:25:52;;;;;;;1.47;0.93;;;23.50;57.40;;;;;;6137984;23;20384;-86
2021/08/29 14:31:49;;;;;;;1.03;0.90;;;23.50;57.20;;;;;;6136739;23;20145;-86
2021/08/29 14:34:46;;;;;;;1.00;0.70;;;23.40;57.30;;;;;;6128205;23;20379;-86
2021/08/29 14:37:12;;;;;;;1.00;0.87;;;23.40;57.40;;;;;;6124831;23;20387;-86
2021/08/29 14:39:41;;;;;;;1.20;1.00;;;23.40;57.40;;;;;;6171808;23;20430;-86
2021/08/29 14:42:08;;;;;;;1.50;1.20;;;23.40;57.40;;;;;;6198249;23;20371;-86
2021/08/29 14:44:42;;;;;;;0.90;0.70;;;23.40;57.40;;;;;;6171952;23;20371;-86
2021/08/29 14:47:08;;;;;;;0.90;0.77;;;23.40;57.40;;;;;;6172613;23;20437;-86
2021/08/29 14:49:36;;;;;;;0.90;0.73;;;23.40;57.30;;;;;;6171852;23;20387;-86
2021/08/29 14:52:02;;;;;;;1.30;1.03;;;23.40;57.30;;;;;;6171965;23;20470;-86
2021/08/29 14:54:28;;;;;;;1.10;0.90;;;23.40;57.30;;;;;;6171567;23;20414;-86
2021/08/29 14:56:56;;;;;;;0.87;0.67;;;23.40;57.30;;;;;;6198683;23;20405;-86
2021/08/29 14:59:27;;;;;;;1.03;0.93;;;23.40;57.40;;;;;;6171836;23;20258;-87
2021/08/29 15:01:56;;;;;;;0.97;0.80;;;23.40;57.30;;;;;;6171272;23;20376;-86
2021/08/29 15:04:22;;;;;;;0.97;0.70;;;23.40;57.30;;;;;;6171586;23;20378;-86
2021/08/29 15:06:47;;;;;;;1.03;0.83;;;23.40;57.40;;;;;;6171330;23;20423;-86
2021/08/29 15:12:41;;;;;;;1.10;0.90;;;23.40;57.40;;;;;;6220168;23;20179;-86
2021/08/29 15:15:10;;;;;;;1.37;1.00;;;23.30;57.40;;;;;;6197637;23;20382;-86
2021/08/29 15:17:36;;;;;;;0.90;0.70;;;23.30;57.40;;;;;;6172108;23;20473;-85
2021/08/29 15:20:23;;;;;;;1.50;1.00;;;23.30;57.50;;;;;;6171463;23;20426;-86
2021/08/29 15:22:49;;;;;;;1.10;0.80;;;23.30;57.40;;;;;;6171693;23;20152;-86
2021/08/29 15:25:18;;;;;;;1.10;0.70;;;23.30;57.40;;;;;;6197859;23;20410;-86
2021/08/29 15:27:43;;;;;;;1.10;0.90;;;23.30;57.50;;;;;;6198284;23;20144;-86
2021/08/29 15:30:10;;;;;;;1.50;1.00;;;23.30;57.40;;;;;;6197530;23;20394;-86
2021/08/29 15:32:38;;;;;;;1.20;0.90;;;23.30;57.40;;;;;;6197387;23;20156;-86
2021/08/29 15:35:11;;;;;;;0.83;0.70;;;23.30;57.40;;;;;;6171116;23;20470;-86
2021/08/29 15:37:37;;;;;;;1.00;0.80;;;23.30;57.40;;;;;;6171849;23;20382;-86
2021/08/29 15:40:07;;;;;;;3.00;0.90;;;23.30;57.50;;;;;;6171333;23;20426;-86
2021/08/29 15:42:33;;;;;;;1.33;0.83;;;23.30;57.50;;;;;;6170648;23;20379;-86
2021/08/29 15:45:00;;;;;;;1.10;0.80;;;23.30;57.40;;;;;;6171263;23;20383;-86
2021/08/29 15:47:28;;;;;;;1.10;0.80;;;23.30;57.50;;;;;;6171828;23;20418;-86
2021/08/29 15:49:53;;;;;;;1.20;0.93;;;23.30;57.50;;;;;;6197230;23;20908;-86
2021/08/29 15:52:22;;;;;;;0.90;0.70;;;23.30;57.50;;;;;;6171282;23;20387;-85
2021/08/29 15:55:00;;;;;;;1.00;0.80;;;23.30;57.50;;;;;;6171137;23;20214;-85
2021/08/29 16:00:53;;;;;;;1.07;0.80;;;23.30;57.50;;;;;;6140200;23;20485;-86
2021/08/29 16:03:22;;;;;;;1.00;0.83;;;23.30;57.60;;;;;;6112853;23;20373;-86
2021/08/29 16:05:48;;;;;;;1.30;0.90;;;23.30;57.60;;;;;;6113139;23;20500;-86
2021/08/29 16:08:19;;;;;;;1.17;1.00;;;23.30;57.70;;;;;;6115322;23;20424;-86
2021/08/29 16:10:49;;;;;;;1.10;1.00;;;23.20;57.50;;;;;;6112953;23;20159;-86
2021/08/29 16:13:15;;;;;;;0.90;0.80;;;23.30;57.60;;;;;;6142563;23;20431;-85
2021/08/29 16:15:43;;;;;;;1.00;0.80;;;23.20;57.50;;;;;;6174142;23;20495;-84
2021/08/29 16:18:09;;;;;;;0.90;0.70;;;23.20;57.50;;;;;;6196136;23;20378;-85
2021/08/29 16:20:36;;;;;;;1.00;0.80;;;23.20;57.60;;;;;;6171185;23;20700;-85
2021/08/29 16:23:02;;;;;;;0.97;0.73;;;23.20;57.60;;;;;;6195512;23;20379;-85
2021/08/29 16:25:36;;;;;;;1.00;0.90;;;23.20;57.50;;;;;;6169738;23;20525;-86
2021/08/29 16:28:08;;;;;;;1.20;0.90;;;23.20;57.50;;;;;;6186385;23;20378;-85
2021/08/29 16:30:34;;;;;;;1.00;0.80;;;23.20;57.60;;;;;;6227718;23;20400;-85
2021/08/29 16:33:00;;;;;;;1.30;0.90;;;23.20;57.60;;;;;;6226160;23;20895;-85
2021/08/29 16:35:32;;;;;;;1.30;1.00;;;23.20;57.60;;;;;;6225598;23;20374;-85
2021/08/29 16:38:01;;;;;;;1.07;0.80;;;23.30;57.70;;;;;;6251202;23;20154;-86
2021/08/29 17:04:32;;;;;;;0.90;0.70;;;23.10;57.70;;;;;;6110944;23;20419;-86
2021/08/29 17:07:02;;;;;;;1.10;0.70;;;23.10;57.70;;;;;;6087296;23;20401;-86
2021/08/29 17:09:29;;;;;;;1.00;0.80;;;23.10;57.90;;;;;;6109538;23;20385;-86
2021/08/29 17:11:55;;;;;;;0.90;0.70;;;23.10;57.70;;;;;;6112077;23;20374;-86
2021/08/29 17:14:39;;;;;;;1.07;0.97;;;23.10;57.70;;;;;;6086039;23;20437;-86
2021/08/29 17:17:05;;;;;;;1.03;0.90;;;23.10;57.60;;;;;;6108193;23;20384;-86
2021/08/29 17:19:31;;;;;;;0.90;0.80;;;23.10;58.20;;;;;;6084796;23;20421;-86
2021/08/29 17:21:57;;;;;;;1.07;0.80;;;23.10;57.70;;;;;;6171504;23;20155;-86